createdAt,value
2018-04-29T00:01:10.555Z,13.47
2018-04-29T00:03:37.954Z,12.80
2018-04-29T00:06:05.338Z,12.67
2018-04-29T00:08:32.718Z,13.23
2018-04-29T00:11:00.116Z,12.40
2018-04-29T00:13:27.495Z,13.07
2018-04-29T00:15:54.893Z,13.23
2018-04-29T00:18:22.277Z,12.37
2018-04-29T00:20:49.674Z,12.33
2018-04-29T00:23:17.065Z,12.87
2018-04-29T00:25:44.451Z,12.80
2018-04-29T00:28:11.847Z,12.63
2018-04-29T00:30:39.234Z,13.80
2018-04-29T00:33:06.618Z,11.73
2018-04-29T00:35:34.010Z,12.73
2018-04-29T00:38:01.391Z,12.83
2018-04-29T00:40:28.779Z,13.17
2018-04-29T00:42:56.161Z,12.13
2018-04-29T00:45:23.560Z,11.93
2018-04-29T00:47:50.938Z,12.90
2018-04-29T00:50:18.323Z,12.10
2018-04-29T00:52:45.719Z,12.27
2018-04-29T00:55:13.103Z,12.43
2018-04-29T00:57:40.549Z,13.07
2018-04-29T01:00:07.914Z,11.70
2018-04-29T01:02:35.298Z,13.13
2018-04-29T01:05:02.686Z,11.83
2018-04-29T01:07:30.083Z,12.33
2018-04-29T01:09:57.460Z,12.90
2018-04-29T01:12:24.846Z,13.77
2018-04-29T01:14:52.235Z,12.83
2018-04-29T01:17:19.627Z,12.97
2018-04-29T01:19:47.015Z,11.40
2018-04-29T01:22:14.403Z,11.83
2018-04-29T01:24:41.792Z,11.50
2018-04-29T01:27:09.179Z,12.07
2018-04-29T01:29:36.637Z,12.07
2018-04-29T01:32:04.031Z,12.10
2018-04-29T01:34:31.423Z,11.87
2018-04-29T01:36:58.818Z,11.93
2018-04-29T01:39:26.207Z,11.57
2018-04-29T01:41:53.595Z,12.83
2018-04-29T01:44:20.983Z,11.63
2018-04-29T01:46:48.368Z,12.50
2018-04-29T01:49:15.825Z,12.13
2018-04-29T01:51:43.241Z,12.27
2018-04-29T01:54:10.611Z,12.00
2018-04-29T01:56:37.991Z,11.63
2018-04-29T01:59:05.714Z,11.70
2018-04-29T02:01:33.098Z,11.87
2018-04-29T02:04:00.474Z,13.30
2018-04-29T02:06:27.871Z,12.77
2018-04-29T02:08:55.654Z,12.30
2018-04-29T02:11:23.035Z,11.80
2018-04-29T02:13:50.415Z,11.60
2018-04-29T02:16:17.802Z,12.50
2018-04-29T02:18:45.187Z,12.90
2018-04-29T02:21:12.575Z,13.17
2018-04-29T02:23:39.963Z,12.83
2018-04-29T02:26:07.353Z,12.90
2018-04-29T02:28:34.735Z,12.97
2018-04-29T02:31:02.119Z,13.07
2018-04-29T02:33:29.503Z,12.90
2018-04-29T02:35:56.888Z,12.60
2018-04-29T02:38:24.270Z,12.73
2018-04-29T02:40:51.672Z,13.27
2018-04-29T02:43:19.044Z,12.80
2018-04-29T02:45:46.427Z,12.30
2018-04-29T02:48:13.818Z,13.07
2018-04-29T02:50:41.218Z,12.63
2018-04-29T02:53:08.611Z,12.20
2018-04-29T02:55:36.007Z,13.10
2018-04-29T02:58:03.396Z,12.83
2018-04-29T03:00:30.779Z,12.20
2018-04-29T03:02:58.170Z,14.03
2018-04-29T03:05:25.551Z,13.10
2018-04-29T03:07:52.947Z,12.70
2018-04-29T03:10:20.379Z,13.70
2018-04-29T03:12:47.774Z,13.33
2018-04-29T03:15:15.155Z,14.33
2018-04-29T03:17:42.548Z,13.33
2018-04-29T03:20:09.926Z,14.67
2018-04-29T03:22:37.318Z,14.90
2018-04-29T03:25:04.704Z,13.40
2018-04-29T03:27:32.092Z,13.03
2018-04-29T03:29:59.479Z,13.90
2018-04-29T03:32:26.866Z,14.37
2018-04-29T03:34:54.251Z,15.13
2018-04-29T03:37:21.635Z,15.07
2018-04-29T03:39:49.038Z,14.20
2018-04-29T03:42:16.411Z,14.87
2018-04-29T03:44:43.802Z,14.33
2018-04-29T03:47:11.182Z,16.07
2018-04-29T03:49:38.567Z,15.10
2018-04-29T03:52:05.959Z,16.33
2018-04-29T03:54:33.343Z,14.93
2018-04-29T03:57:12.570Z,16.73
2018-04-29T03:59:51.767Z,14.87
2018-04-29T04:02:30.977Z,15.10
2018-04-29T04:04:58.342Z,14.33
2018-04-29T04:07:25.727Z,14.10
2018-04-29T04:09:53.120Z,15.90
2018-04-29T04:12:20.509Z,15.00
2018-04-29T04:14:47.887Z,16.30
2018-04-29T04:17:15.282Z,15.37
2018-04-29T04:19:42.670Z,15.40
2018-04-29T04:22:10.047Z,15.27
2018-04-29T04:24:37.431Z,14.10
2018-04-29T04:27:04.821Z,13.97
2018-04-29T04:29:32.228Z,13.93
2018-04-29T04:31:59.959Z,15.17
2018-04-29T04:34:27.329Z,14.60
2018-04-29T04:36:54.719Z,14.13
2018-04-29T04:39:22.099Z,14.27
2018-04-29T04:41:49.486Z,13.97
2018-04-29T04:44:16.875Z,13.97
2018-04-29T04:46:44.560Z,14.10
2018-04-29T04:49:11.947Z,13.67
2018-04-29T04:51:39.331Z,16.53
2018-04-29T04:54:06.742Z,13.67
2018-04-29T04:56:34.155Z,14.37
2018-04-29T04:59:01.572Z,14.80
2018-04-29T05:01:28.991Z,14.80
2018-04-29T05:03:56.379Z,13.90
2018-04-29T05:06:23.781Z,13.47
2018-04-29T05:08:51.180Z,14.00
2018-04-29T05:11:18.558Z,14.67
2018-04-29T05:13:46.052Z,14.60
2018-04-29T05:16:13.351Z,14.10
2018-04-29T05:18:40.739Z,13.13
2018-04-29T05:21:08.119Z,13.43
2018-04-29T05:23:35.512Z,14.50
2018-04-29T05:26:02.902Z,14.30
2018-04-29T05:28:30.362Z,13.60
2018-04-29T05:30:57.748Z,14.27
2018-04-29T05:33:25.158Z,13.60
2018-04-29T05:35:52.554Z,13.33
2018-04-29T05:38:19.961Z,13.70
2018-04-29T05:40:47.347Z,13.50
2018-04-29T05:43:14.722Z,13.43
2018-04-29T05:45:42.124Z,13.83
2018-04-29T05:48:09.495Z,15.30
2018-04-29T05:50:36.891Z,14.30
2018-04-29T05:53:04.279Z,14.67
2018-04-29T05:55:31.660Z,14.40
2018-04-29T05:57:59.334Z,13.70
2018-04-29T06:00:26.860Z,14.43
2018-04-29T06:02:54.158Z,14.20
2018-04-29T06:05:21.552Z,13.90
2018-04-29T06:07:48.930Z,14.90
2018-04-29T06:10:16.315Z,14.30
2018-04-29T06:12:43.755Z,15.00
2018-04-29T06:15:11.115Z,14.47
2018-04-29T06:17:38.502Z,14.27
2018-04-29T06:20:06.722Z,14.83
2018-04-29T06:22:34.111Z,14.53
2018-04-29T06:25:01.490Z,14.27
2018-04-29T06:27:28.874Z,14.30
2018-04-29T06:29:56.256Z,14.20
2018-04-29T06:32:23.646Z,13.80
2018-04-29T06:34:51.027Z,13.27
2018-04-29T06:37:18.416Z,15.33
2018-04-29T06:39:45.802Z,14.13
2018-04-29T06:42:13.183Z,14.70
2018-04-29T06:44:40.562Z,13.30
2018-04-29T06:47:08.019Z,13.70
2018-04-29T06:49:35.399Z,12.83
2018-04-29T06:52:02.802Z,13.43
2018-04-29T06:54:30.171Z,12.57
2018-04-29T06:56:57.554Z,14.30
2018-04-29T06:59:24.939Z,13.97
2018-04-29T07:01:52.322Z,13.20
2018-04-29T07:04:19.710Z,13.70
2018-04-29T07:06:47.094Z,14.47
2018-04-29T07:09:14.478Z,15.00
2018-04-29T07:11:41.883Z,13.30
2018-04-29T07:14:09.281Z,14.10
2018-04-29T07:16:36.659Z,14.30
2018-04-29T07:19:04.044Z,15.00
2018-04-29T07:21:31.503Z,14.90
2018-04-29T07:23:58.998Z,14.43
2018-04-29T07:26:26.350Z,15.10
2018-04-29T07:28:53.730Z,16.67
2018-04-29T07:31:21.208Z,15.93
2018-04-29T07:33:48.580Z,17.37
2018-04-29T07:36:15.969Z,17.67
2018-04-29T07:38:43.494Z,16.87
2018-04-29T07:41:10.880Z,17.40
2018-04-29T07:43:38.259Z,16.03
2018-04-29T07:46:05.642Z,16.13
2018-04-29T07:48:33.026Z,16.73
2018-04-29T07:51:00.414Z,15.87
2018-04-29T07:53:27.798Z,15.70
2018-04-29T07:55:55.194Z,16.33
2018-04-29T07:58:22.578Z,16.03
2018-04-29T08:00:50.049Z,15.77
2018-04-29T08:03:17.355Z,14.70
2018-04-29T08:05:45.120Z,14.47
2018-04-29T08:08:12.499Z,15.73
2018-04-29T08:10:40.031Z,16.20
2018-04-29T08:13:07.422Z,15.57
2018-04-29T08:15:34.980Z,15.33
2018-04-29T08:18:02.343Z,14.93
2018-04-29T08:20:29.724Z,14.50
2018-04-29T08:22:57.110Z,14.93
2018-04-29T08:25:24.492Z,15.23
2018-04-29T08:27:51.970Z,16.50
2018-04-29T08:30:19.355Z,15.07
2018-04-29T08:32:46.744Z,15.90
2018-04-29T08:35:14.162Z,16.83
2018-04-29T08:37:41.554Z,16.10
2018-04-29T08:40:08.935Z,15.40
2018-04-29T08:42:36.323Z,14.77
2018-04-29T08:45:03.714Z,14.87
2018-04-29T08:47:31.106Z,14.97
2018-04-29T08:49:58.496Z,14.33
2018-04-29T08:52:25.875Z,13.77
2018-04-29T08:54:53.547Z,12.83
2018-04-29T08:57:20.862Z,13.70
2018-04-29T08:59:48.272Z,12.97
2018-04-29T09:02:15.644Z,13.90
2018-04-29T09:04:43.075Z,13.97
2018-04-29T09:07:10.458Z,13.00
2018-04-29T09:09:37.857Z,12.73
2018-04-29T09:12:05.234Z,13.03
2018-04-29T09:14:32.706Z,12.20
2018-04-29T09:17:00.103Z,12.30
2018-04-29T09:19:27.547Z,12.13
2018-04-29T09:21:54.926Z,12.40
2018-04-29T09:24:22.319Z,12.63
2018-04-29T09:26:49.700Z,13.53
2018-04-29T09:29:17.079Z,12.30
2018-04-29T09:31:44.467Z,11.87
2018-04-29T09:34:11.864Z,12.10
2018-04-29T09:36:39.267Z,11.43
2018-04-29T09:39:06.627Z,10.70
2018-04-29T09:41:34.011Z,11.70
2018-04-29T09:44:01.398Z,12.13
2018-04-29T09:46:28.796Z,10.47
2018-04-29T09:48:56.215Z,11.93
2018-04-29T09:51:23.599Z,10.27
2018-04-29T09:53:50.987Z,9.93
2018-04-29T09:56:18.366Z,11.07
2018-04-29T09:58:45.756Z,11.20
2018-04-29T10:01:18.204Z,10.27
2018-04-29T10:03:47.404Z,9.87
2018-04-29T10:06:14.783Z,10.40
2018-04-29T10:08:42.174Z,10.23
2018-04-29T10:11:09.584Z,11.00
2018-04-29T10:13:36.963Z,11.27
2018-04-29T10:16:05.359Z,11.17
2018-04-29T10:18:32.747Z,11.33
2018-04-29T10:21:00.176Z,11.23
2018-04-29T10:23:27.571Z,10.80
2018-04-29T10:25:54.970Z,10.87
2018-04-29T10:28:22.376Z,11.60
2018-04-29T10:30:49.760Z,11.60
2018-04-29T10:33:17.154Z,12.07
2018-04-29T10:35:44.535Z,11.30
2018-04-29T10:38:11.924Z,10.77
2018-04-29T10:40:39.311Z,11.70
2018-04-29T10:43:06.702Z,11.63
2018-04-29T10:45:34.086Z,12.87
2018-04-29T10:48:01.472Z,11.47
2018-04-29T10:50:28.870Z,12.20
2018-04-29T10:52:56.264Z,11.73
2018-04-29T10:55:23.650Z,11.50
2018-04-29T10:57:51.035Z,10.70
2018-04-29T11:00:18.426Z,11.93
2018-04-29T11:02:45.810Z,12.23
2018-04-29T11:05:13.209Z,11.60
2018-04-29T11:07:40.591Z,12.53
2018-04-29T11:10:07.979Z,12.30
2018-04-29T11:12:35.362Z,11.90
2018-04-29T11:15:02.747Z,11.83
2018-04-29T11:17:30.127Z,11.63
2018-04-29T11:19:57.527Z,11.93
2018-04-29T11:22:24.905Z,12.17
2018-04-29T11:24:52.306Z,13.20
2018-04-29T11:27:19.684Z,12.10
2018-04-29T11:29:47.073Z,12.10
2018-04-29T11:32:14.462Z,11.93
2018-04-29T11:34:41.843Z,12.80
2018-04-29T11:37:09.317Z,11.87
2018-04-29T11:39:36.683Z,12.47
2018-04-29T11:42:04.075Z,12.93
2018-04-29T11:44:31.459Z,12.23
2018-04-29T11:46:58.851Z,13.57
2018-04-29T11:49:26.234Z,13.77
2018-04-29T11:51:53.627Z,12.27
2018-04-29T11:54:21.015Z,12.70
2018-04-29T11:56:48.402Z,13.07
2018-04-29T11:59:15.784Z,14.27
2018-04-29T12:01:43.174Z,13.80
2018-04-29T12:04:10.626Z,14.00
2018-04-29T12:06:38.400Z,13.20
2018-04-29T12:09:05.775Z,13.43
2018-04-29T12:11:33.163Z,13.23
2018-04-29T12:14:00.556Z,13.37
2018-04-29T12:16:28.009Z,12.90
2018-04-29T12:18:55.334Z,14.33
2018-04-29T12:21:22.723Z,12.97
2018-04-29T12:23:50.108Z,13.13
2018-04-29T12:26:17.495Z,13.83
2018-04-29T12:28:44.891Z,13.30
2018-04-29T12:31:12.271Z,12.90
2018-04-29T12:33:39.691Z,12.67
2018-04-29T12:36:07.039Z,11.60
2018-04-29T12:38:34.432Z,13.80
2018-04-29T12:41:01.815Z,12.27
2018-04-29T12:43:29.200Z,12.43
2018-04-29T12:45:56.582Z,12.70
2018-04-29T12:48:23.978Z,11.60
2018-04-29T12:50:51.366Z,12.83
2018-04-29T12:53:18.751Z,13.70
2018-04-29T12:55:46.138Z,12.87
2018-04-29T12:58:13.518Z,13.80
2018-04-29T13:00:40.907Z,13.20
2018-04-29T13:03:08.295Z,13.17
2018-04-29T13:05:35.740Z,13.70
2018-04-29T13:08:03.063Z,13.00
2018-04-29T13:10:30.454Z,13.10
2018-04-29T13:12:57.834Z,13.43
2018-04-29T13:15:25.234Z,13.30
2018-04-29T13:17:52.613Z,13.00
2018-04-29T13:20:20.002Z,13.40
2018-04-29T13:22:47.378Z,13.60
2018-04-29T13:25:14.771Z,13.10
2018-04-29T13:27:42.163Z,13.93
2018-04-29T13:30:09.554Z,12.47
2018-04-29T13:32:36.972Z,14.70
2018-04-29T13:35:04.367Z,13.60
2018-04-29T13:37:31.856Z,13.53
2018-04-29T13:39:59.255Z,13.10
2018-04-29T13:42:26.706Z,14.10
2018-04-29T13:44:54.042Z,14.10
2018-04-29T13:47:21.439Z,13.40
2018-04-29T13:49:48.825Z,13.63
2018-04-29T13:52:16.249Z,13.33
2018-04-29T13:54:43.603Z,14.03
2018-04-29T13:57:11.004Z,12.30
2018-04-29T13:59:38.384Z,12.43
2018-04-29T14:02:05.778Z,13.90
2018-04-29T14:04:33.153Z,13.03
2018-04-29T14:07:00.543Z,14.30
2018-04-29T14:09:27.931Z,12.97
2018-04-29T14:11:55.311Z,13.53
2018-04-29T14:14:22.698Z,14.13
2018-04-29T14:16:50.075Z,12.67
2018-04-29T14:19:17.473Z,13.70
2018-04-29T14:21:44.856Z,12.83
2018-04-29T14:24:12.250Z,15.13
2018-04-29T14:26:39.647Z,13.27
2018-04-29T14:29:07.036Z,13.43
2018-04-29T14:31:34.411Z,19.47
2018-04-29T14:34:01.803Z,13.93
2018-04-29T14:36:29.194Z,13.30
2018-04-29T14:38:56.594Z,13.50
2018-04-29T14:41:23.982Z,13.03
2018-04-29T14:43:51.383Z,13.37
2018-04-29T14:46:18.773Z,12.87
2018-04-29T14:48:46.154Z,12.47
2018-04-29T14:51:13.542Z,12.97
2018-04-29T14:53:40.931Z,12.67
2018-04-29T14:56:08.322Z,13.87
2018-04-29T14:58:35.703Z,15.40
2018-04-29T15:01:03.094Z,16.63
2018-04-29T15:03:30.485Z,21.47
2018-04-29T15:05:57.874Z,97.40
2018-04-29T15:08:25.266Z,55.43
2018-04-29T15:10:52.651Z,71.80
2018-04-29T15:13:20.047Z,228.73
2018-04-29T15:15:47.436Z,276.17
2018-04-29T15:18:26.403Z,157.70
2018-04-29T15:20:53.782Z,36.30
2018-04-29T15:23:21.199Z,17.40
2018-04-29T15:25:48.720Z,13.40
2018-04-29T15:28:15.978Z,12.50
2018-04-29T15:30:43.359Z,13.70
2018-04-29T15:33:10.751Z,13.93
2018-04-29T15:35:38.133Z,14.20
2018-04-29T15:38:05.516Z,13.93
2018-04-29T15:40:32.919Z,12.83
2018-04-29T15:43:00.296Z,13.83
2018-04-29T15:45:27.679Z,13.63
2018-04-29T15:47:55.067Z,12.90
2018-04-29T15:50:22.451Z,13.53
2018-04-29T15:52:49.838Z,14.13
2018-04-29T15:55:17.239Z,15.67
2018-04-29T15:57:44.622Z,13.73
2018-04-29T16:00:12.064Z,14.17
2018-04-29T16:02:39.435Z,12.50
2018-04-29T16:05:06.814Z,13.77
2018-04-29T16:07:34.274Z,13.30
2018-04-29T16:10:01.667Z,14.40
2018-04-29T16:12:29.050Z,15.23
2018-04-29T16:14:56.430Z,13.73
2018-04-29T16:17:23.861Z,13.67
2018-04-29T16:19:51.235Z,15.17
2018-04-29T16:22:18.629Z,14.20
2018-04-29T16:24:46.018Z,13.50
2018-04-29T16:27:13.410Z,15.37
2018-04-29T16:29:40.791Z,14.87
2018-04-29T16:32:08.183Z,14.43
2018-04-29T16:34:35.567Z,14.17
2018-04-29T16:37:02.974Z,13.50
2018-04-29T16:39:30.362Z,13.33
2018-04-29T16:41:57.740Z,12.83
2018-04-29T16:44:25.127Z,14.20
2018-04-29T16:46:52.606Z,15.00
2018-04-29T16:49:19.983Z,14.60
2018-04-29T16:51:49.074Z,13.90
2018-04-29T16:54:16.480Z,14.57
2018-04-29T16:56:43.871Z,16.50
2018-04-29T16:59:11.262Z,16.30
2018-04-29T17:01:38.712Z,15.03
2018-04-29T17:04:06.091Z,13.83
2018-04-29T17:06:33.470Z,13.13
2018-04-29T17:09:00.864Z,20.03
2018-04-29T17:11:28.247Z,15.33
2018-04-29T17:13:55.644Z,14.87
2018-04-29T17:16:23.024Z,17.47
2018-04-29T17:18:50.645Z,14.33
2018-04-29T17:21:18.051Z,15.57
2018-04-29T17:23:45.432Z,15.90
2018-04-29T17:26:12.824Z,22.40
2018-04-29T17:28:40.203Z,30.50
2018-04-29T17:31:07.592Z,24.33
2018-04-29T17:33:34.970Z,40.63
2018-04-29T17:36:02.363Z,23.50
2018-04-29T17:38:29.824Z,24.63
2018-04-29T17:40:57.215Z,16.43
2018-04-29T17:43:24.606Z,15.00
2018-04-29T17:45:51.991Z,16.53
2018-04-29T17:48:19.378Z,15.60
2018-04-29T17:50:46.768Z,16.17
2018-04-29T17:53:14.156Z,15.90
2018-04-29T17:55:41.541Z,16.73
2018-04-29T17:58:08.929Z,15.00
2018-04-29T18:00:36.310Z,15.83
2018-04-29T18:03:03.707Z,16.57
2018-04-29T18:05:31.086Z,16.17
2018-04-29T18:07:58.466Z,15.90
2018-04-29T18:10:25.860Z,16.27
2018-04-29T18:12:53.238Z,16.00
2018-04-29T18:15:20.627Z,15.00
2018-04-29T18:17:48.019Z,16.90
2018-04-29T18:20:15.411Z,15.80
2018-04-29T18:22:42.786Z,15.63
2018-04-29T18:25:10.191Z,15.20
2018-04-29T18:27:37.574Z,14.73
2018-04-29T18:30:04.955Z,14.47
2018-04-29T18:32:32.347Z,15.70
2018-04-29T18:34:59.749Z,15.63
2018-04-29T18:37:27.130Z,14.33
2018-04-29T18:39:54.522Z,14.30
2018-04-29T18:42:21.906Z,15.80
2018-04-29T18:44:49.363Z,14.90
2018-04-29T18:47:16.686Z,15.90
2018-04-29T18:49:44.070Z,15.10
2018-04-29T18:52:11.451Z,16.40
2018-04-29T18:54:38.847Z,15.60
2018-04-29T18:57:06.226Z,14.60
2018-04-29T18:59:33.615Z,14.47
2018-04-29T19:02:01.355Z,15.60
2018-04-29T19:04:28.744Z,15.90
2018-04-29T19:06:56.126Z,15.20
2018-04-29T19:09:23.624Z,14.80
2018-04-29T19:11:50.995Z,14.70
2018-04-29T19:14:18.384Z,16.10
2018-04-29T19:16:45.782Z,15.67
2018-04-29T19:19:13.159Z,15.80
2018-04-29T19:21:40.561Z,15.00
2018-04-29T19:24:08.099Z,16.00
2018-04-29T19:26:35.337Z,14.83
2018-04-29T19:29:02.719Z,16.07
2018-04-29T19:31:30.181Z,15.37
2018-04-29T19:33:57.503Z,15.03
2018-04-29T19:36:24.898Z,14.87
2018-04-29T19:38:52.291Z,15.13
2018-04-29T19:41:19.670Z,14.70
2018-04-29T19:43:47.102Z,15.73
2018-04-29T19:46:14.484Z,14.90
2018-04-29T19:48:41.878Z,16.33
2018-04-29T19:51:09.333Z,16.63
2018-04-29T19:53:36.646Z,15.30
2018-04-29T19:56:04.023Z,14.47
2018-04-29T19:58:31.407Z,15.70
2018-04-29T20:00:58.799Z,14.93
2018-04-29T20:03:26.192Z,15.30
2018-04-29T20:05:53.578Z,15.40
2018-04-29T20:08:20.984Z,15.57
2018-04-29T20:10:48.371Z,15.77
2018-04-29T20:13:15.759Z,16.00
2018-04-29T20:15:43.152Z,15.87
2018-04-29T20:18:10.539Z,15.53
2018-04-29T20:20:37.918Z,15.90
2018-04-29T20:23:05.318Z,15.40
2018-04-29T20:25:32.695Z,16.20
2018-04-29T20:28:00.083Z,15.57
2018-04-29T20:30:27.470Z,15.27
2018-04-29T20:32:54.858Z,15.50
2018-04-29T20:35:22.242Z,15.30
2018-04-29T20:37:49.644Z,15.43
2018-04-29T20:40:17.038Z,15.97
2018-04-29T20:42:44.426Z,15.77
2018-04-29T20:45:11.891Z,15.70
2018-04-29T20:47:39.202Z,16.27
2018-04-29T20:50:06.585Z,15.83
2018-04-29T20:52:33.962Z,15.87
2018-04-29T20:55:01.351Z,16.10
2018-04-29T20:57:28.734Z,16.23
2018-04-29T20:59:56.123Z,15.07
2018-04-29T21:02:23.504Z,15.63
2018-04-29T21:04:50.890Z,15.80
2018-04-29T21:07:18.282Z,15.63
2018-04-29T21:09:45.670Z,15.93
2018-04-29T21:12:13.054Z,16.43
2018-04-29T21:14:40.500Z,16.70
2018-04-29T21:17:07.880Z,15.87
2018-04-29T21:19:35.267Z,16.47
2018-04-29T21:22:02.656Z,16.27
2018-04-29T21:24:30.043Z,17.43
2018-04-29T21:26:57.435Z,16.70
2018-04-29T21:29:24.829Z,16.63
2018-04-29T21:31:52.207Z,16.70
2018-04-29T21:34:19.595Z,16.33
2018-04-29T21:36:46.991Z,17.00
2018-04-29T21:39:14.374Z,17.40
2018-04-29T21:41:41.763Z,16.70
2018-04-29T21:44:09.147Z,16.10
2018-04-29T21:46:36.535Z,16.13
2018-04-29T21:49:03.928Z,16.23
2018-04-29T21:51:31.400Z,16.30
2018-04-29T21:53:58.790Z,16.63
2018-04-29T21:56:26.175Z,17.50
2018-04-29T21:58:53.566Z,16.73
2018-04-29T22:01:20.952Z,16.90
2018-04-29T22:03:48.332Z,16.80
2018-04-29T22:06:15.727Z,19.20
2018-04-29T22:08:43.117Z,16.67
2018-04-29T22:11:10.507Z,16.70
2018-04-29T22:13:37.887Z,16.90
2018-04-29T22:16:05.280Z,18.40
2018-04-29T22:18:32.739Z,16.50
2018-04-29T22:21:00.490Z,19.73
2018-04-29T22:23:27.876Z,19.10
2018-04-29T22:25:55.323Z,19.50
2018-04-29T22:28:22.846Z,22.20
2018-04-29T22:30:50.242Z,22.80
2018-04-29T22:33:17.631Z,24.33
2018-04-29T22:35:45.011Z,23.47
2018-04-29T22:38:12.400Z,24.43
2018-04-29T22:40:39.786Z,24.83
2018-04-29T22:43:07.174Z,26.37
2018-04-29T22:45:34.563Z,29.67
2018-04-29T22:48:01.982Z,30.30
2018-04-29T22:50:29.362Z,33.73
2018-04-29T22:52:57.216Z,32.93
2018-04-29T22:55:24.602Z,38.03
2018-04-29T22:57:51.992Z,40.83
2018-04-29T23:00:19.383Z,41.63
2018-04-29T23:02:46.782Z,47.20
2018-04-29T23:05:14.162Z,48.37
2018-04-29T23:07:41.546Z,50.73
2018-04-29T23:10:09.003Z,58.80
2018-04-29T23:12:36.394Z,62.77
2018-04-29T23:15:03.775Z,70.67
2018-04-29T23:17:31.163Z,71.90
2018-04-29T23:19:58.831Z,68.80
2018-04-29T23:22:26.219Z,66.33
2018-04-29T23:24:53.611Z,54.33
2018-04-29T23:27:21.011Z,54.40
2018-04-29T23:29:48.391Z,55.83
2018-04-29T23:32:15.783Z,51.73
2018-04-29T23:34:43.175Z,50.27
2018-04-29T23:37:10.570Z,51.97
2018-04-29T23:39:37.956Z,51.23
2018-04-29T23:42:05.351Z,57.17
2018-04-29T23:44:32.739Z,63.80
2018-04-29T23:47:00.135Z,65.03
2018-04-29T23:49:27.531Z,67.80
2018-04-29T23:51:54.914Z,68.90
2018-04-29T23:54:22.307Z,75.77
2018-04-29T23:56:49.694Z,88.50
2018-04-29T23:59:17.083Z,88.80
